sensor_id;sensor_type;location;lat;lon;timestamp;P1;durP1;ratioP1;P2;durP2;ratioP2
22924;SDS011;11628;51.072;3.712;2023-06-24T00:00:58;6.05;;;5.10;;
22924;SDS011;11628;51.072;3.712;2023-06-24T00:03:24;8.07;;;6.32;;
22924;SDS011;11628;51.072;3.712;2023-06-24T00:05:50;10.38;;;6.20;;
22924;SDS011;11628;51.072;3.712;2023-06-24T00:08:16;7.55;;;6.22;;
22924;SDS011;11628;51.072;3.712;2023-06-24T00:10:48;7.05;;;5.63;;
22924;SDS011;11628;51.072;3.712;2023-06-24T00:13:17;6.90;;;6.20;;
22924;SDS011;11628;51.072;3.712;2023-06-24T00:15:43;6.32;;;5.72;;
22924;SDS011;11628;51.072;3.712;2023-06-24T00:18:11;7.10;;;6.40;;
22924;SDS011;11628;51.072;3.712;2023-06-24T00:20:37;7.10;;;6.28;;
22924;SDS011;11628;51.072;3.712;2023-06-24T00:23:03;6.47;;;5.78;;
22924;SDS011;11628;51.072;3.712;2023-06-24T00:25:31;8.02;;;5.80;;
22924;SDS011;11628;51.072;3.712;2023-06-24T00:27:57;6.03;;;5.47;;
22924;SDS011;11628;51.072;3.712;2023-06-24T00:30:23;7.70;;;5.15;;
22924;SDS011;11628;51.072;3.712;2023-06-24T00:32:49;5.95;;;5.32;;
22924;SDS011;11628;51.072;3.712;2023-06-24T00:35:14;6.93;;;5.70;;
22924;SDS011;11628;51.072;3.712;2023-06-24T00:37:40;6.47;;;5.25;;
22924;SDS011;11628;51.072;3.712;2023-06-24T00:40:08;6.72;;;5.63;;
22924;SDS011;11628;51.072;3.712;2023-06-24T00:42:35;7.35;;;6.00;;
22924;SDS011;11628;51.072;3.712;2023-06-24T00:45:02;6.05;;;5.20;;
22924;SDS011;11628;51.072;3.712;2023-06-24T00:47:30;5.18;;;4.65;;
22924;SDS011;11628;51.072;3.712;2023-06-24T00:49:57;6.70;;;5.13;;
22924;SDS011;11628;51.072;3.712;2023-06-24T00:52:22;7.38;;;5.22;;
22924;SDS011;11628;51.072;3.712;2023-06-24T00:54:48;6.22;;;5.07;;
22924;SDS011;11628;51.072;3.712;2023-06-24T00:57:14;6.72;;;5.43;;
22924;SDS011;11628;51.072;3.712;2023-06-24T00:59:42;6.25;;;5.20;;
22924;SDS011;11628;51.072;3.712;2023-06-24T01:02:10;5.93;;;4.57;;
22924;SDS011;11628;51.072;3.712;2023-06-24T01:04:37;5.53;;;4.93;;
22924;SDS011;11628;51.072;3.712;2023-06-24T01:07:03;6.80;;;4.90;;
22924;SDS011;11628;51.072;3.712;2023-06-24T01:09:30;6.95;;;5.63;;
22924;SDS011;11628;51.072;3.712;2023-06-24T01:11:56;7.13;;;5.10;;
22924;SDS011;11628;51.072;3.712;2023-06-24T01:14:22;6.40;;;5.18;;
22924;SDS011;11628;51.072;3.712;2023-06-24T01:16:53;6.70;;;4.90;;
22924;SDS011;11628;51.072;3.712;2023-06-24T01:33:57;6.22;;;4.88;;
22924;SDS011;11628;51.072;3.712;2023-06-24T01:36:32;7.65;;;5.65;;
22924;SDS011;11628;51.072;3.712;2023-06-24T01:39:03;5.93;;;5.32;;
22924;SDS011;11628;51.072;3.712;2023-06-24T01:41:32;7.00;;;5.63;;
22924;SDS011;11628;51.072;3.712;2023-06-24T01:44:03;7.00;;;5.07;;
22924;SDS011;11628;51.072;3.712;2023-06-24T01:46:29;7.30;;;5.60;;
22924;SDS011;11628;51.072;3.712;2023-06-24T01:48:57;7.55;;;5.70;;
22924;SDS011;11628;51.072;3.712;2023-06-24T01:51:26;6.55;;;5.50;;
22924;SDS011;11628;51.072;3.712;2023-06-24T01:53:58;6.13;;;5.53;;
22924;SDS011;11628;51.072;3.712;2023-06-24T01:56:27;5.90;;;5.30;;
22924;SDS011;11628;51.072;3.712;2023-06-24T01:58:55;7.40;;;5.68;;
22924;SDS011;11628;51.072;3.712;2023-06-24T02:01:25;7.32;;;5.68;;
22924;SDS011;11628;51.072;3.712;2023-06-24T02:03:51;8.85;;;6.25;;
22924;SDS011;11628;51.072;3.712;2023-06-24T02:06:19;6.88;;;6.03;;
22924;SDS011;11628;51.072;3.712;2023-06-24T02:08:46;7.55;;;6.43;;
22924;SDS011;11628;51.072;3.712;2023-06-24T02:11:15;6.45;;;5.40;;
22924;SDS011;11628;51.072;3.712;2023-06-24T02:13:42;7.05;;;6.30;;
22924;SDS011;11628;51.072;3.712;2023-06-24T02:16:08;6.85;;;5.88;;
22924;SDS011;11628;51.072;3.712;2023-06-24T02:18:36;8.68;;;6.22;;
22924;SDS011;11628;51.072;3.712;2023-06-24T02:21:07;7.18;;;6.45;;
22924;SDS011;11628;51.072;3.712;2023-06-24T02:23:33;11.20;;;6.88;;
22924;SDS011;11628;51.072;3.712;2023-06-24T02:26:02;6.80;;;5.85;;
22924;SDS011;11628;51.072;3.712;2023-06-24T02:28:30;7.30;;;6.60;;
22924;SDS011;11628;51.072;3.712;2023-06-24T02:30:58;6.40;;;5.80;;
22924;SDS011;11628;51.072;3.712;2023-06-24T02:33:24;7.00;;;6.20;;
22924;SDS011;11628;51.072;3.712;2023-06-24T02:35:51;7.80;;;7.00;;
22924;SDS011;11628;51.072;3.712;2023-06-24T02:38:19;8.23;;;7.25;;
22924;SDS011;11628;51.072;3.712;2023-06-24T02:40:45;8.27;;;7.03;;
22924;SDS011;11628;51.072;3.712;2023-06-24T02:43:11;7.20;;;6.50;;
22924;SDS011;11628;51.072;3.712;2023-06-24T02:45:37;7.22;;;6.30;;
22924;SDS011;11628;51.072;3.712;2023-06-24T02:48:04;7.70;;;6.63;;
22924;SDS011;11628;51.072;3.712;2023-06-24T02:50:31;7.57;;;6.57;;
22924;SDS011;11628;51.072;3.712;2023-06-24T02:52:58;7.50;;;6.40;;
22924;SDS011;11628;51.072;3.712;2023-06-24T02:55:24;6.97;;;6.18;;
22924;SDS011;11628;51.072;3.712;2023-06-24T02:57:51;7.40;;;6.45;;
22924;SDS011;11628;51.072;3.712;2023-06-24T03:00:18;7.15;;;5.78;;
22924;SDS011;11628;51.072;3.712;2023-06-24T03:02:45;8.20;;;6.40;;
22924;SDS011;11628;51.072;3.712;2023-06-24T03:05:13;9.60;;;7.05;;
22924;SDS011;11628;51.072;3.712;2023-06-24T03:07:40;9.45;;;6.68;;
22924;SDS011;11628;51.072;3.712;2023-06-24T03:10:07;9.00;;;7.22;;
22924;SDS011;11628;51.072;3.712;2023-06-24T03:12:33;7.90;;;7.10;;
22924;SDS011;11628;51.072;3.712;2023-06-24T03:14:58;8.07;;;6.75;;
22924;SDS011;11628;51.072;3.712;2023-06-24T03:17:25;7.55;;;6.75;;
22924;SDS011;11628;51.072;3.712;2023-06-24T03:19:51;8.63;;;7.65;;
22924;SDS011;11628;51.072;3.712;2023-06-24T03:22:17;9.18;;;6.82;;
22924;SDS011;11628;51.072;3.712;2023-06-24T03:24:43;8.02;;;7.15;;
22924;SDS011;11628;51.072;3.712;2023-06-24T03:27:09;8.95;;;7.82;;
22924;SDS011;11628;51.072;3.712;2023-06-24T03:29:34;8.73;;;6.88;;
22924;SDS011;11628;51.072;3.712;2023-06-24T03:32:00;9.00;;;8.00;;
22924;SDS011;11628;51.072;3.712;2023-06-24T03:34:26;9.18;;;8.18;;
22924;SDS011;11628;51.072;3.712;2023-06-24T03:36:52;10.13;;;8.13;;
22924;SDS011;11628;51.072;3.712;2023-06-24T03:39:21;8.65;;;7.75;;
22924;SDS011;11628;51.072;3.712;2023-06-24T03:41:47;8.70;;;7.80;;
22924;SDS011;11628;51.072;3.712;2023-06-24T03:44:13;11.00;;;7.63;;
22924;SDS011;11628;51.072;3.712;2023-06-24T03:46:39;8.80;;;7.75;;
22924;SDS011;11628;51.072;3.712;2023-06-24T03:49:04;9.07;;;8.20;;
22924;SDS011;11628;51.072;3.712;2023-06-24T03:51:31;10.75;;;8.25;;
22924;SDS011;11628;51.072;3.712;2023-06-24T03:53:57;9.73;;;8.48;;
22924;SDS011;11628;51.072;3.712;2023-06-24T03:56:22;8.90;;;7.65;;
22924;SDS011;11628;51.072;3.712;2023-06-24T03:58:48;8.15;;;7.35;;
22924;SDS011;11628;51.072;3.712;2023-06-24T04:01:14;8.88;;;7.95;;
22924;SDS011;11628;51.072;3.712;2023-06-24T04:03:39;8.98;;;8.07;;
22924;SDS011;11628;51.072;3.712;2023-06-24T04:06:05;10.68;;;8.23;;
22924;SDS011;11628;51.072;3.712;2023-06-24T04:08:31;9.90;;;8.25;;
22924;SDS011;11628;51.072;3.712;2023-06-24T04:10:57;9.05;;;8.15;;
22924;SDS011;11628;51.072;3.712;2023-06-24T04:13:28;8.90;;;8.00;;
22924;SDS011;11628;51.072;3.712;2023-06-24T04:15:54;9.57;;;8.23;;
22924;SDS011;11628;51.072;3.712;2023-06-24T04:18:20;9.55;;;8.35;;
22924;SDS011;11628;51.072;3.712;2023-06-24T04:20:45;10.70;;;8.32;;
22924;SDS011;11628;51.072;3.712;2023-06-24T04:23:12;9.60;;;7.97;;
22924;SDS011;11628;51.072;3.712;2023-06-24T04:25:39;10.20;;;8.68;;
22924;SDS011;11628;51.072;3.712;2023-06-24T04:28:05;10.00;;;8.20;;
22924;SDS011;11628;51.072;3.712;2023-06-24T04:30:31;9.10;;;7.43;;
22924;SDS011;11628;51.072;3.712;2023-06-24T04:33:00;10.20;;;8.88;;
22924;SDS011;11628;51.072;3.712;2023-06-24T04:35:26;10.95;;;8.07;;
22924;SDS011;11628;51.072;3.712;2023-06-24T04:37:52;10.05;;;8.95;;
22924;SDS011;11628;51.072;3.712;2023-06-24T04:40:18;9.20;;;8.30;;
22924;SDS011;11628;51.072;3.712;2023-06-24T04:42:44;9.57;;;8.23;;
22924;SDS011;11628;51.072;3.712;2023-06-24T04:45:10;10.05;;;8.50;;
22924;SDS011;11628;51.072;3.712;2023-06-24T04:47:37;11.73;;;8.63;;
22924;SDS011;11628;51.072;3.712;2023-06-24T04:50:03;10.50;;;8.25;;
22924;SDS011;11628;51.072;3.712;2023-06-24T04:52:29;10.45;;;8.48;;
22924;SDS011;11628;51.072;3.712;2023-06-24T04:54:55;11.45;;;10.05;;
22924;SDS011;11628;51.072;3.712;2023-06-24T04:57:27;10.38;;;9.35;;
22924;SDS011;11628;51.072;3.712;2023-06-24T04:59:54;9.35;;;8.07;;
22924;SDS011;11628;51.072;3.712;2023-06-24T05:02:20;9.55;;;8.55;;
22924;SDS011;11628;51.072;3.712;2023-06-24T05:04:45;11.50;;;8.90;;
22924;SDS011;11628;51.072;3.712;2023-06-24T05:07:11;9.20;;;8.30;;
22924;SDS011;11628;51.072;3.712;2023-06-24T05:09:37;11.65;;;8.80;;
22924;SDS011;11628;51.072;3.712;2023-06-24T05:12:06;10.45;;;9.20;;
22924;SDS011;11628;51.072;3.712;2023-06-24T05:14:34;11.88;;;8.57;;
22924;SDS011;11628;51.072;3.712;2023-06-24T05:17:00;10.20;;;9.20;;
22924;SDS011;11628;51.072;3.712;2023-06-24T05:19:26;10.40;;;8.73;;
22924;SDS011;11628;51.072;3.712;2023-06-24T05:21:51;9.45;;;8.13;;
22924;SDS011;11628;51.072;3.712;2023-06-24T05:24:17;10.70;;;9.60;;
22924;SDS011;11628;51.072;3.712;2023-06-24T05:26:44;10.15;;;9.05;;
22924;SDS011;11628;51.072;3.712;2023-06-24T05:29:12;12.88;;;9.18;;
22924;SDS011;11628;51.072;3.712;2023-06-24T05:31:37;12.10;;;9.88;;
22924;SDS011;11628;51.072;3.712;2023-06-24T05:34:05;10.63;;;9.45;;
22924;SDS011;11628;51.072;3.712;2023-06-24T05:36:30;11.38;;;9.38;;
22924;SDS011;11628;51.072;3.712;2023-06-24T05:38:56;12.30;;;9.63;;
22924;SDS011;11628;51.072;3.712;2023-06-24T05:41:23;10.40;;;9.32;;
22924;SDS011;11628;51.072;3.712;2023-06-24T05:43:49;12.15;;;10.00;;
22924;SDS011;11628;51.072;3.712;2023-06-24T05:46:14;11.73;;;9.80;;
22924;SDS011;11628;51.072;3.712;2023-06-24T05:48:40;11.50;;;9.50;;
22924;SDS011;11628;51.072;3.712;2023-06-24T05:51:07;14.73;;;9.80;;
22924;SDS011;11628;51.072;3.712;2023-06-24T05:53:33;12.40;;;9.50;;
22924;SDS011;11628;51.072;3.712;2023-06-24T05:55:59;11.52;;;9.50;;
22924;SDS011;11628;51.072;3.712;2023-06-24T05:58:25;10.52;;;9.43;;
22924;SDS011;11628;51.072;3.712;2023-06-24T06:00:50;11.27;;;10.18;;
22924;SDS011;11628;51.072;3.712;2023-06-24T06:03:17;13.13;;;11.35;;
22924;SDS011;11628;51.072;3.712;2023-06-24T06:05:42;14.43;;;10.43;;
22924;SDS011;11628;51.072;3.712;2023-06-24T06:08:08;11.93;;;10.35;;
22924;SDS011;11628;51.072;3.712;2023-06-24T06:10:34;12.18;;;10.50;;
22924;SDS011;11628;51.072;3.712;2023-06-24T06:12:59;14.23;;;11.05;;
22924;SDS011;11628;51.072;3.712;2023-06-24T06:15:25;14.20;;;10.32;;
22924;SDS011;11628;51.072;3.712;2023-06-24T06:17:52;14.20;;;11.73;;
22924;SDS011;11628;51.072;3.712;2023-06-24T06:20:18;13.75;;;11.55;;
22924;SDS011;11628;51.072;3.712;2023-06-24T06:22:43;15.55;;;13.00;;
22924;SDS011;11628;51.072;3.712;2023-06-24T06:25:09;14.63;;;12.93;;
22924;SDS011;11628;51.072;3.712;2023-06-24T06:27:35;17.15;;;12.05;;
22924;SDS011;11628;51.072;3.712;2023-06-24T06:30:00;14.55;;;12.98;;
22924;SDS011;11628;51.072;3.712;2023-06-24T06:32:26;14.75;;;12.95;;
22924;SDS011;11628;51.072;3.712;2023-06-24T06:34:52;15.23;;;13.45;;
22924;SDS011;11628;51.072;3.712;2023-06-24T06:37:17;16.15;;;13.45;;
22924;SDS011;11628;51.072;3.712;2023-06-24T06:39:43;18.02;;;14.32;;
22924;SDS011;11628;51.072;3.712;2023-06-24T06:42:09;17.65;;;14.45;;
22924;SDS011;11628;51.072;3.712;2023-06-24T06:44:34;18.77;;;14.07;;
22924;SDS011;11628;51.072;3.712;2023-06-24T06:47:00;16.00;;;14.30;;
22924;SDS011;11628;51.072;3.712;2023-06-24T06:49:26;16.88;;;14.20;;
22924;SDS011;11628;51.072;3.712;2023-06-24T06:51:53;17.92;;;14.68;;
22924;SDS011;11628;51.072;3.712;2023-06-24T06:54:19;16.75;;;14.73;;
22924;SDS011;11628;51.072;3.712;2023-06-24T06:56:45;17.48;;;14.05;;
22924;SDS011;11628;51.072;3.712;2023-06-24T06:59:11;17.30;;;14.63;;
22924;SDS011;11628;51.072;3.712;2023-06-24T07:01:37;15.52;;;13.88;;
22924;SDS011;11628;51.072;3.712;2023-06-24T07:04:02;17.15;;;15.27;;
22924;SDS011;11628;51.072;3.712;2023-06-24T07:06:28;16.23;;;13.85;;
22924;SDS011;11628;51.072;3.712;2023-06-24T07:08:54;16.35;;;14.38;;
22924;SDS011;11628;51.072;3.712;2023-06-24T07:11:20;15.15;;;13.55;;
22924;SDS011;11628;51.072;3.712;2023-06-24T07:13:45;17.33;;;15.38;;
22924;SDS011;11628;51.072;3.712;2023-06-24T07:16:11;16.90;;;14.95;;
22924;SDS011;11628;51.072;3.712;2023-06-24T07:18:37;16.60;;;14.45;;
22924;SDS011;11628;51.072;3.712;2023-06-24T07:21:03;16.08;;;14.38;;
22924;SDS011;11628;51.072;3.712;2023-06-24T07:23:28;17.67;;;14.25;;
22924;SDS011;11628;51.072;3.712;2023-06-24T07:25:54;17.13;;;14.48;;
22924;SDS011;11628;51.072;3.712;2023-06-24T07:28:20;18.45;;;15.23;;
22924;SDS011;11628;51.072;3.712;2023-06-24T07:30:46;18.00;;;16.10;;
22924;SDS011;11628;51.072;3.712;2023-06-24T07:33:11;16.13;;;14.20;;
22924;SDS011;11628;51.072;3.712;2023-06-24T07:35:37;18.77;;;16.10;;
22924;SDS011;11628;51.072;3.712;2023-06-24T07:38:03;18.83;;;14.05;;
22924;SDS011;11628;51.072;3.712;2023-06-24T07:40:28;16.10;;;14.25;;
22924;SDS011;11628;51.072;3.712;2023-06-24T07:42:54;17.52;;;14.43;;
22924;SDS011;11628;51.072;3.712;2023-06-24T07:45:20;17.05;;;15.25;;
22924;SDS011;11628;51.072;3.712;2023-06-24T07:47:46;17.85;;;15.68;;
22924;SDS011;11628;51.072;3.712;2023-06-24T07:50:12;19.60;;;15.55;;
22924;SDS011;11628;51.072;3.712;2023-06-24T07:52:38;17.60;;;14.65;;
22924;SDS011;11628;51.072;3.712;2023-06-24T07:55:04;18.98;;;15.98;;
22924;SDS011;11628;51.072;3.712;2023-06-24T07:57:30;17.92;;;15.10;;
22924;SDS011;11628;51.072;3.712;2023-06-24T07:59:55;19.70;;;14.27;;
22924;SDS011;11628;51.072;3.712;2023-06-24T08:02:21;18.08;;;14.88;;
22924;SDS011;11628;51.072;3.712;2023-06-24T08:04:49;15.82;;;14.13;;
22924;SDS011;11628;51.072;3.712;2023-06-24T08:07:15;18.98;;;15.00;;
22924;SDS011;11628;51.072;3.712;2023-06-24T08:09:41;17.38;;;15.38;;
22924;SDS011;11628;51.072;3.712;2023-06-24T08:12:07;14.88;;;13.02;;
22924;SDS011;11628;51.072;3.712;2023-06-24T08:14:33;15.20;;;13.68;;
22924;SDS011;11628;51.072;3.712;2023-06-24T08:16:58;15.55;;;13.95;;
22924;SDS011;11628;51.072;3.712;2023-06-24T08:19:24;16.95;;;13.98;;
22924;SDS011;11628;51.072;3.712;2023-06-24T08:21:50;15.02;;;13.20;;
22924;SDS011;11628;51.072;3.712;2023-06-24T08:24:15;19.95;;;13.13;;
22924;SDS011;11628;51.072;3.712;2023-06-24T08:26:41;14.80;;;12.27;;
22924;SDS011;11628;51.072;3.712;2023-06-24T08:29:07;15.55;;;13.77;;
22924;SDS011;11628;51.072;3.712;2023-06-24T08:31:32;13.13;;;11.73;;
22924;SDS011;11628;51.072;3.712;2023-06-24T08:33:58;14.77;;;12.02;;
22924;SDS011;11628;51.072;3.712;2023-06-24T08:36:26;13.23;;;11.90;;
22924;SDS011;11628;51.072;3.712;2023-06-24T08:38:54;12.93;;;11.52;;
22924;SDS011;11628;51.072;3.712;2023-06-24T08:41:20;12.98;;;10.88;;
22924;SDS011;11628;51.072;3.712;2023-06-24T08:43:47;12.63;;;11.25;;
22924;SDS011;11628;51.072;3.712;2023-06-24T08:46:13;15.32;;;12.95;;
22924;SDS011;11628;51.072;3.712;2023-06-24T08:48:41;14.00;;;12.70;;
22924;SDS011;11628;51.072;3.712;2023-06-24T08:51:09;13.65;;;12.25;;
22924;SDS011;11628;51.072;3.712;2023-06-24T08:53:38;13.65;;;12.25;;
22924;SDS011;11628;51.072;3.712;2023-06-24T08:56:07;13.98;;;11.35;;
22924;SDS011;11628;51.072;3.712;2023-06-24T08:58:33;12.00;;;10.80;;
22924;SDS011;11628;51.072;3.712;2023-06-24T09:00:59;13.40;;;10.10;;
22924;SDS011;11628;51.072;3.712;2023-06-24T09:03:25;11.65;;;10.48;;
22924;SDS011;11628;51.072;3.712;2023-06-24T09:05:51;14.65;;;12.02;;
22924;SDS011;11628;51.072;3.712;2023-06-24T09:08:17;12.57;;;10.93;;
22924;SDS011;11628;51.072;3.712;2023-06-24T09:10:43;13.32;;;11.25;;
22924;SDS011;11628;51.072;3.712;2023-06-24T09:13:09;12.57;;;9.98;;
22924;SDS011;11628;51.072;3.712;2023-06-24T09:15:35;11.32;;;9.60;;
22924;SDS011;11628;51.072;3.712;2023-06-24T09:18:02;12.73;;;10.40;;
22924;SDS011;11628;51.072;3.712;2023-06-24T09:20:32;11.30;;;9.10;;
22924;SDS011;11628;51.072;3.712;2023-06-24T09:23:04;9.13;;;8.15;;
22924;SDS011;11628;51.072;3.712;2023-06-24T09:25:30;11.02;;;9.60;;
22924;SDS011;11628;51.072;3.712;2023-06-24T09:27:59;12.60;;;10.25;;
22924;SDS011;11628;51.072;3.712;2023-06-24T09:30:26;11.07;;;9.50;;
22924;SDS011;11628;51.072;3.712;2023-06-24T09:32:52;9.10;;;8.18;;
22924;SDS011;11628;51.072;3.712;2023-06-24T09:35:21;8.40;;;6.90;;
22924;SDS011;11628;51.072;3.712;2023-06-24T09:37:49;7.03;;;6.32;;
22924;SDS011;11628;51.072;3.712;2023-06-24T09:40:26;8.25;;;6.53;;
22924;SDS011;11628;51.072;3.712;2023-06-24T09:42:56;8.32;;;7.53;;
22924;SDS011;11628;51.072;3.712;2023-06-24T09:45:27;8.70;;;7.80;;
22924;SDS011;11628;51.072;3.712;2023-06-24T09:47:54;8.85;;;7.57;;
22924;SDS011;11628;51.072;3.712;2023-06-24T09:50:21;9.55;;;8.00;;
22924;SDS011;11628;51.072;3.712;2023-06-24T09:52:48;8.52;;;7.10;;
22924;SDS011;11628;51.072;3.712;2023-06-24T09:55:15;9.43;;;7.20;;
22924;SDS011;11628;51.072;3.712;2023-06-24T09:57:42;7.75;;;6.95;;
22924;SDS011;11628;51.072;3.712;2023-06-24T10:00:13;10.35;;;6.93;;
22924;SDS011;11628;51.072;3.712;2023-06-24T10:02:43;7.20;;;6.50;;
22924;SDS011;11628;51.072;3.712;2023-06-24T10:05:10;8.85;;;6.97;;
22924;SDS011;11628;51.072;3.712;2023-06-24T10:07:39;8.25;;;6.78;;
22924;SDS011;11628;51.072;3.712;2023-06-24T10:10:06;5.30;;;4.80;;
22924;SDS011;11628;51.072;3.712;2023-06-24T10:12:33;5.60;;;4.60;;
22924;SDS011;11628;51.072;3.712;2023-06-24T10:15:03;6.60;;;4.25;;
22924;SDS011;11628;51.072;3.712;2023-06-24T10:17:30;4.40;;;3.80;;
22924;SDS011;11628;51.072;3.712;2023-06-24T10:19:56;6.03;;;4.38;;
22924;SDS011;11628;51.072;3.712;2023-06-24T10:22:25;4.40;;;3.83;;
22924;SDS011;11628;51.072;3.712;2023-06-24T10:24:58;4.30;;;3.90;;
22924;SDS011;11628;51.072;3.712;2023-06-24T10:27:25;4.72;;;3.92;;
22924;SDS011;11628;51.072;3.712;2023-06-24T10:29:53;5.13;;;4.63;;
22924;SDS011;11628;51.072;3.712;2023-06-24T10:32:21;5.53;;;4.85;;
22924;SDS011;11628;51.072;3.712;2023-06-24T10:34:55;5.97;;;4.70;;
22924;SDS011;11628;51.072;3.712;2023-06-24T10:37:31;5.97;;;5.47;;
22924;SDS011;11628;51.072;3.712;2023-06-24T10:42:37;6.25;;;5.75;;
22924;SDS011;11628;51.072;3.712;2023-06-24T10:47:38;6.05;;;5.45;;
22924;SDS011;11628;51.072;3.712;2023-06-24T10:50:05;3.92;;;3.63;;
22924;SDS011;11628;51.072;3.712;2023-06-24T10:52:32;7.75;;;5.30;;
22924;SDS011;11628;51.072;3.712;2023-06-24T10:55:02;6.55;;;5.82;;
22924;SDS011;11628;51.072;3.712;2023-06-24T10:57:28;6.10;;;4.90;;
22924;SDS011;11628;51.072;3.712;2023-06-24T10:59:54;4.45;;;4.05;;
22924;SDS011;11628;51.072;3.712;2023-06-24T11:02:21;6.00;;;4.82;;
22924;SDS011;11628;51.072;3.712;2023-06-24T11:04:49;8.10;;;5.20;;
22924;SDS011;11628;51.072;3.712;2023-06-24T11:07:19;7.30;;;6.60;;
22924;SDS011;11628;51.072;3.712;2023-06-24T11:09:51;6.38;;;4.47;;
22924;SDS011;11628;51.072;3.712;2023-06-24T11:12:18;8.35;;;4.30;;
22924;SDS011;11628;51.072;3.712;2023-06-24T11:14:48;5.82;;;5.32;;
22924;SDS011;11628;51.072;3.712;2023-06-24T11:17:14;5.88;;;5.32;;
22924;SDS011;11628;51.072;3.712;2023-06-24T11:19:39;4.82;;;4.35;;
22924;SDS011;11628;51.072;3.712;2023-06-24T11:22:06;5.72;;;5.07;;
22924;SDS011;11628;51.072;3.712;2023-06-24T11:24:33;6.07;;;5.15;;
22924;SDS011;11628;51.072;3.712;2023-06-24T11:26:59;5.30;;;4.35;;
22924;SDS011;11628;51.072;3.712;2023-06-24T11:29:29;5.15;;;4.63;;
22924;SDS011;11628;51.072;3.712;2023-06-24T11:31:57;5.75;;;5.05;;
22924;SDS011;11628;51.072;3.712;2023-06-24T11:34:23;4.35;;;3.95;;
22924;SDS011;11628;51.072;3.712;2023-06-24T11:36:49;5.25;;;3.33;;
22924;SDS011;11628;51.072;3.712;2023-06-24T11:39:23;5.22;;;3.00;;
22924;SDS011;11628;51.072;3.712;2023-06-24T11:41:50;7.70;;;6.93;;
22924;SDS011;11628;51.072;3.712;2023-06-24T11:44:20;7.45;;;6.80;;
22924;SDS011;11628;51.072;3.712;2023-06-24T11:46:48;14.40;;;7.03;;
22924;SDS011;11628;51.072;3.712;2023-06-24T11:49:14;7.80;;;7.00;;
22924;SDS011;11628;51.072;3.712;2023-06-24T11:51:49;6.63;;;6.00;;
22924;SDS011;11628;51.072;3.712;2023-06-24T11:54:19;7.15;;;6.43;;
22924;SDS011;11628;51.072;3.712;2023-06-24T11:56:51;8.57;;;7.63;;
22924;SDS011;11628;51.072;3.712;2023-06-24T12:01:54;5.72;;;5.15;;
22924;SDS011;11628;51.072;3.712;2023-06-24T12:04:23;5.75;;;5.20;;
22924;SDS011;11628;51.072;3.712;2023-06-24T12:06:56;7.20;;;6.60;;
22924;SDS011;11628;51.072;3.712;2023-06-24T12:09:22;6.72;;;5.22;;
22924;SDS011;11628;51.072;3.712;2023-06-24T12:11:49;8.40;;;6.05;;
22924;SDS011;11628;51.072;3.712;2023-06-24T12:14:14;8.73;;;7.93;;
22924;SDS011;11628;51.072;3.712;2023-06-24T12:16:40;7.45;;;6.55;;
22924;SDS011;11628;51.072;3.712;2023-06-24T12:19:06;7.65;;;6.35;;
22924;SDS011;11628;51.072;3.712;2023-06-24T12:21:33;6.47;;;5.35;;
22924;SDS011;11628;51.072;3.712;2023-06-24T12:23:59;4.82;;;3.90;;
22924;SDS011;11628;51.072;3.712;2023-06-24T12:26:25;5.35;;;4.85;;
22924;SDS011;11628;51.072;3.712;2023-06-24T12:28:53;5.22;;;4.03;;
22924;SDS011;11628;51.072;3.712;2023-06-24T12:31:23;6.20;;;5.60;;
22924;SDS011;11628;51.072;3.712;2023-06-24T12:33:50;7.75;;;5.90;;
22924;SDS011;11628;51.072;3.712;2023-06-24T12:36:18;6.53;;;5.20;;
22924;SDS011;11628;51.072;3.712;2023-06-24T12:38:44;8.20;;;7.40;;
22924;SDS011;11628;51.072;3.712;2023-06-24T12:41:09;8.05;;;7.32;;
22924;SDS011;11628;51.072;3.712;2023-06-24T12:43:35;7.05;;;5.68;;
22924;SDS011;11628;51.072;3.712;2023-06-24T12:46:01;5.03;;;4.40;;
22924;SDS011;11628;51.072;3.712;2023-06-24T12:48:27;4.80;;;4.13;;
22924;SDS011;11628;51.072;3.712;2023-06-24T12:50:52;4.40;;;4.00;;
22924;SDS011;11628;51.072;3.712;2023-06-24T12:53:18;5.63;;;4.07;;
22924;SDS011;11628;51.072;3.712;2023-06-24T12:55:45;5.68;;;5.00;;
22924;SDS011;11628;51.072;3.712;2023-06-24T12:58:12;6.40;;;5.75;;
22924;SDS011;11628;51.072;3.712;2023-06-24T13:00:38;6.72;;;5.95;;
22924;SDS011;11628;51.072;3.712;2023-06-24T13:03:04;6.88;;;6.28;;
22924;SDS011;11628;51.072;3.712;2023-06-24T13:05:30;8.80;;;6.63;;
22924;SDS011;11628;51.072;3.712;2023-06-24T13:07:56;7.07;;;6.47;;
22924;SDS011;11628;51.072;3.712;2023-06-24T13:10:21;6.63;;;5.95;;
22924;SDS011;11628;51.072;3.712;2023-06-24T13:12:47;6.50;;;4.72;;
22924;SDS011;11628;51.072;3.712;2023-06-24T13:15:13;6.40;;;5.70;;
22924;SDS011;11628;51.072;3.712;2023-06-24T13:17:39;7.47;;;6.55;;
22924;SDS011;11628;51.072;3.712;2023-06-24T13:20:05;7.90;;;5.93;;
22924;SDS011;11628;51.072;3.712;2023-06-24T13:22:31;7.50;;;5.65;;
22924;SDS011;11628;51.072;3.712;2023-06-24T13:24:57;6.10;;;5.50;;
22924;SDS011;11628;51.072;3.712;2023-06-24T13:27:23;6.28;;;5.03;;
22924;SDS011;11628;51.072;3.712;2023-06-24T13:29:48;6.13;;;5.28;;
22924;SDS011;11628;51.072;3.712;2023-06-24T13:32:14;7.50;;;5.28;;
22924;SDS011;11628;51.072;3.712;2023-06-24T13:34:40;3.90;;;3.05;;
22924;SDS011;11628;51.072;3.712;2023-06-24T13:37:06;4.82;;;3.97;;
22924;SDS011;11628;51.072;3.712;2023-06-24T13:39:31;4.43;;;3.55;;
22924;SDS011;11628;51.072;3.712;2023-06-24T13:41:57;4.15;;;3.75;;
22924;SDS011;11628;51.072;3.712;2023-06-24T13:44:23;4.63;;;4.18;;
22924;SDS011;11628;51.072;3.712;2023-06-24T13:46:49;3.42;;;3.13;;
22924;SDS011;11628;51.072;3.712;2023-06-24T13:49:18;6.38;;;4.60;;
22924;SDS011;11628;51.072;3.712;2023-06-24T13:51:43;3.70;;;3.40;;
22924;SDS011;11628;51.072;3.712;2023-06-24T13:54:09;6.25;;;3.42;;
22924;SDS011;11628;51.072;3.712;2023-06-24T13:56:35;5.65;;;3.05;;
22924;SDS011;11628;51.072;3.712;2023-06-24T13:59:01;3.38;;;3.08;;
22924;SDS011;11628;51.072;3.712;2023-06-24T14:01:27;5.35;;;4.63;;
22924;SDS011;11628;51.072;3.712;2023-06-24T14:03:56;4.20;;;3.63;;
22924;SDS011;11628;51.072;3.712;2023-06-24T14:06:22;6.30;;;3.70;;
22924;SDS011;11628;51.072;3.712;2023-06-24T14:08:49;3.85;;;3.50;;
22924;SDS011;11628;51.072;3.712;2023-06-24T14:11:15;4.85;;;3.45;;
22924;SDS011;11628;51.072;3.712;2023-06-24T14:13:42;4.50;;;4.10;;
22924;SDS011;11628;51.072;3.712;2023-06-24T14:16:08;6.32;;;3.80;;
22924;SDS011;11628;51.072;3.712;2023-06-24T14:18:35;4.50;;;4.10;;
22924;SDS011;11628;51.072;3.712;2023-06-24T14:21:01;7.60;;;6.85;;
22924;SDS011;11628;51.072;3.712;2023-06-24T14:23:29;4.05;;;3.65;;
22924;SDS011;11628;51.072;3.712;2023-06-24T14:25:56;6.38;;;3.60;;
22924;SDS011;11628;51.072;3.712;2023-06-24T14:28:22;4.95;;;3.80;;
22924;SDS011;11628;51.072;3.712;2023-06-24T14:30:48;3.10;;;2.80;;
22924;SDS011;11628;51.072;3.712;2023-06-24T14:33:14;3.53;;;2.90;;
22924;SDS011;11628;51.072;3.712;2023-06-24T14:35:40;3.17;;;2.67;;
22924;SDS011;11628;51.072;3.712;2023-06-24T14:38:06;13.93;;;12.25;;
22924;SDS011;11628;51.072;3.712;2023-06-24T14:40:32;4.25;;;3.60;;
22924;SDS011;11628;51.072;3.712;2023-06-24T14:42:59;5.05;;;4.63;;
22924;SDS011;11628;51.072;3.712;2023-06-24T14:45:25;6.57;;;5.93;;
22924;SDS011;11628;51.072;3.712;2023-06-24T14:47:51;4.45;;;3.92;;
22924;SDS011;11628;51.072;3.712;2023-06-24T14:50:17;4.18;;;3.78;;
22924;SDS011;11628;51.072;3.712;2023-06-24T14:52:43;14.75;;;13.55;;
22924;SDS011;11628;51.072;3.712;2023-06-24T14:55:09;7.68;;;7.07;;
22924;SDS011;11628;51.072;3.712;2023-06-24T14:57:35;3.20;;;3.00;;
22924;SDS011;11628;51.072;3.712;2023-06-24T15:00:02;3.58;;;3.28;;